createdAt,value
2022-08-12T00:02:14.075Z,0.00
2022-08-12T00:12:14.119Z,0.00
2022-08-12T00:22:14.431Z,0.00
2022-08-12T00:32:16.715Z,0.00
2022-08-12T00:42:15.709Z,0.00
2022-08-12T00:52:15.044Z,0.00
2022-08-12T01:02:15.114Z,0.00
2022-08-12T01:12:15.302Z,0.00
2022-08-12T01:22:15.338Z,0.00
2022-08-12T01:32:15.651Z,0.00
2022-08-12T01:42:15.700Z,0.00
2022-08-12T01:52:22.263Z,0.00
2022-08-12T02:02:17.100Z,0.00
2022-08-12T02:12:16.460Z,0.00
2022-08-12T02:22:16.494Z,0.00
2022-08-12T02:32:16.802Z,0.00
2022-08-12T02:42:16.826Z,0.00
2022-08-12T02:52:17.145Z,0.00
2022-08-12T03:02:17.178Z,0.00
2022-08-12T03:12:20.197Z,0.00
2022-08-12T03:22:17.530Z,0.00
2022-08-12T03:32:36.316Z,0.00
2022-08-12T03:42:18.916Z,0.00
2022-08-12T03:52:18.201Z,0.00
2022-08-12T04:02:18.234Z,0.00
2022-08-12T04:12:18.658Z,0.00
2022-08-12T04:22:18.692Z,0.00
2022-08-12T04:32:19.103Z,0.00
2022-08-12T04:42:19.126Z,0.00
2022-08-12T04:52:19.455Z,0.00
2022-08-12T05:02:22.112Z,5.62
2022-08-12T05:12:19.805Z,5.62
2022-08-12T05:22:19.833Z,11.25
2022-08-12T05:32:20.146Z,11.25
2022-08-12T05:42:20.193Z,16.88
2022-08-12T05:52:21.250Z,22.50
2022-08-12T06:02:20.579Z,28.12
2022-08-12T06:12:20.631Z,33.75
2022-08-12T06:22:20.929Z,33.75
2022-08-12T06:32:21.093Z,39.38
2022-08-12T06:42:32.904Z,45.00
2022-08-12T06:52:22.425Z,50.62
2022-08-12T07:02:21.841Z,50.62
2022-08-12T07:12:21.855Z,56.25
2022-08-12T07:22:22.182Z,61.88
2022-08-12T07:32:22.209Z,67.50
2022-08-12T07:42:22.525Z,73.12
2022-08-12T07:52:22.546Z,73.12
2022-08-12T08:02:26.451Z,78.75
2022-08-12T08:12:23.044Z,90.00
2022-08-12T08:22:25.026Z,95.62
2022-08-12T08:32:24.389Z,106.88
2022-08-12T08:42:23.675Z,118.12
2022-08-12T08:52:39.255Z,123.75
2022-08-12T09:02:24.781Z,129.38
2022-08-12T09:12:27.479Z,135.00
2022-08-12T09:22:29.255Z,140.62
2022-08-12T09:32:55.985Z,146.25
2022-08-12T09:42:40.405Z,151.88
2022-08-12T09:52:25.559Z,157.50
2022-08-12T10:02:45.267Z,157.50
2022-08-12T10:12:31.290Z,163.12
2022-08-12T10:22:37.206Z,163.12
2022-08-12T10:32:43.974Z,168.75
2022-08-12T10:42:28.963Z,168.75
2022-08-12T10:52:43.217Z,168.75
2022-08-12T11:04:27.161Z,168.75
2022-08-12T11:12:56.338Z,174.38
2022-08-12T11:22:26.807Z,174.38
2022-08-12T11:32:26.029Z,174.38
2022-08-12T11:42:26.155Z,180.00
2022-08-12T11:52:56.096Z,180.00
2022-08-12T12:02:27.373Z,180.00
2022-08-12T12:12:26.521Z,180.00
2022-08-12T12:22:30.743Z,185.62
2022-08-12T12:32:29.582Z,185.62
2022-08-12T12:42:45.064Z,185.62
2022-08-12T12:52:28.196Z,185.62
2022-08-12T13:02:31.735Z,185.62
2022-08-12T13:12:27.608Z,180.00
2022-08-12T13:22:27.757Z,185.62
2022-08-12T13:32:31.410Z,180.00
2022-08-12T13:42:28.086Z,180.00
2022-08-12T13:52:28.421Z,180.00
2022-08-12T14:02:28.493Z,180.00
2022-08-12T14:12:28.836Z,191.25
2022-08-12T14:22:28.914Z,213.75
2022-08-12T14:32:29.377Z,202.50
2022-08-12T14:42:29.299Z,208.12
2022-08-12T14:53:42.403Z,196.88
2022-08-12T15:02:30.551Z,185.62
2022-08-12T15:12:30.270Z,168.75
2022-08-12T15:22:37.982Z,118.12
2022-08-12T15:32:32.015Z,135.00
2022-08-12T15:42:30.307Z,123.75
2022-08-12T15:52:30.537Z,118.12
2022-08-12T16:02:30.859Z,112.50
2022-08-12T16:12:30.902Z,106.88
2022-08-12T16:22:31.212Z,106.88
2022-08-12T16:32:32.232Z,67.50
2022-08-12T16:42:31.468Z,50.62
2022-08-12T16:52:31.537Z,16.88
2022-08-12T17:02:34.308Z,5.62
2022-08-12T17:12:31.892Z,5.62
2022-08-12T17:22:32.069Z,5.62
2022-08-12T17:32:32.111Z,5.62
2022-08-12T17:42:35.395Z,5.62
2022-08-12T17:52:33.474Z,5.62
2022-08-12T18:02:32.553Z,0.00
2022-08-12T18:12:35.535Z,0.00
2022-08-12T18:22:33.085Z,0.00
2022-08-12T18:32:53.725Z,0.00
2022-08-12T18:42:34.191Z,0.00
2022-08-12T18:52:33.402Z,0.00
2022-08-12T19:02:36.133Z,0.00
2022-08-12T19:12:34.718Z,0.00
2022-08-12T19:22:33.960Z,0.00
2022-08-12T19:32:34.080Z,0.00
2022-08-12T19:42:35.499Z,0.00
2022-08-12T19:52:34.527Z,0.00
2022-08-12T20:02:34.897Z,0.00
2022-08-12T20:12:34.850Z,0.00
2022-08-12T20:22:35.037Z,0.00
2022-08-12T20:32:47.433Z,0.00
2022-08-12T20:42:36.159Z,0.00
2022-08-12T20:52:35.412Z,0.00
2022-08-12T21:02:35.807Z,0.00
2022-08-12T21:12:35.769Z,0.00
2022-08-12T21:22:36.009Z,0.00
2022-08-12T21:32:41.031Z,0.00
2022-08-12T21:42:36.234Z,0.00
2022-08-12T21:52:36.696Z,0.00
2022-08-12T22:02:36.691Z,0.00
2022-08-12T22:12:37.721Z,0.00
2022-08-12T22:22:37.069Z,0.00
2022-08-12T22:32:37.165Z,0.00
2022-08-12T22:42:37.182Z,0.00
2022-08-12T22:52:37.312Z,0.00
2022-08-12T23:02:37.511Z,0.00
2022-08-12T23:12:41.311Z,0.00
2022-08-12T23:22:40.162Z,0.00
2022-08-12T23:32:38.211Z,0.00
2022-08-12T23:42:38.450Z,0.00
2022-08-12T23:52:39.701Z,0.00
